sensor_id;sensor_type;location;lat;lon;timestamp;P1;durP1;ratioP1;P2;durP2;ratioP2
22851;SDS011;11592;45.460;9.240;2022-10-16T00:01:29;90.70;;;47.67;;
22851;SDS011;11592;45.460;9.240;2022-10-16T00:03:57;91.32;;;48.53;;
22851;SDS011;11592;45.460;9.240;2022-10-16T00:06:26;95.25;;;48.88;;
22851;SDS011;11592;45.460;9.240;2022-10-16T00:08:54;89.07;;;48.60;;
22851;SDS011;11592;45.460;9.240;2022-10-16T00:11:31;95.30;;;49.20;;
22851;SDS011;11592;45.460;9.240;2022-10-16T00:14:00;90.45;;;48.85;;
22851;SDS011;11592;45.460;9.240;2022-10-16T00:16:29;87.65;;;46.35;;
22851;SDS011;11592;45.460;9.240;2022-10-16T00:18:56;87.18;;;47.40;;
22851;SDS011;11592;45.460;9.240;2022-10-16T00:21:24;90.65;;;47.25;;
22851;SDS011;11592;45.460;9.240;2022-10-16T00:23:53;85.57;;;45.17;;
22851;SDS011;11592;45.460;9.240;2022-10-16T00:26:23;89.93;;;46.63;;
22851;SDS011;11592;45.460;9.240;2022-10-16T00:28:50;83.03;;;45.67;;
22851;SDS011;11592;45.460;9.240;2022-10-16T00:31:19;89.15;;;46.70;;
22851;SDS011;11592;45.460;9.240;2022-10-16T00:33:46;77.20;;;44.45;;
22851;SDS011;11592;45.460;9.240;2022-10-16T00:36:15;82.30;;;44.80;;
22851;SDS011;11592;45.460;9.240;2022-10-16T00:38:43;81.40;;;43.75;;
22851;SDS011;11592;45.460;9.240;2022-10-16T00:41:12;81.18;;;43.28;;
22851;SDS011;11592;45.460;9.240;2022-10-16T00:43:47;81.72;;;45.08;;
22851;SDS011;11592;45.460;9.240;2022-10-16T00:46:22;81.35;;;45.80;;
22851;SDS011;11592;45.460;9.240;2022-10-16T00:51:33;79.70;;;43.30;;
22851;SDS011;11592;45.460;9.240;2022-10-16T00:54:04;74.03;;;42.70;;
22851;SDS011;11592;45.460;9.240;2022-10-16T00:56:36;77.35;;;44.00;;
22851;SDS011;11592;45.460;9.240;2022-10-16T00:59:03;86.13;;;44.47;;
22851;SDS011;11592;45.460;9.240;2022-10-16T01:01:37;77.10;;;43.45;;
22851;SDS011;11592;45.460;9.240;2022-10-16T01:04:04;80.78;;;43.80;;
22851;SDS011;11592;45.460;9.240;2022-10-16T01:09:30;75.15;;;40.40;;
22851;SDS011;11592;45.460;9.240;2022-10-16T01:12:09;72.53;;;41.63;;
22851;SDS011;11592;45.460;9.240;2022-10-16T01:14:43;75.25;;;42.40;;
22851;SDS011;11592;45.460;9.240;2022-10-16T01:17:22;76.93;;;41.50;;
22851;SDS011;11592;45.460;9.240;2022-10-16T01:22:22;75.43;;;42.72;;
22851;SDS011;11592;45.460;9.240;2022-10-16T01:24:58;73.28;;;41.58;;
22851;SDS011;11592;45.460;9.240;2022-10-16T01:27:30;74.18;;;41.22;;
22851;SDS011;11592;45.460;9.240;2022-10-16T01:30:18;75.15;;;41.42;;
22851;SDS011;11592;45.460;9.240;2022-10-16T01:32:52;79.60;;;41.13;;
22851;SDS011;11592;45.460;9.240;2022-10-16T01:35:27;77.90;;;41.55;;
22851;SDS011;11592;45.460;9.240;2022-10-16T01:40:49;76.73;;;41.30;;
22851;SDS011;11592;45.460;9.240;2022-10-16T01:43:45;71.63;;;40.72;;
22851;SDS011;11592;45.460;9.240;2022-10-16T01:46:13;76.05;;;42.67;;
22851;SDS011;11592;45.460;9.240;2022-10-16T01:48:42;74.72;;;40.88;;
22851;SDS011;11592;45.460;9.240;2022-10-16T01:51:09;80.70;;;43.53;;
22851;SDS011;11592;45.460;9.240;2022-10-16T01:53:39;75.47;;;41.28;;
22851;SDS011;11592;45.460;9.240;2022-10-16T01:56:08;75.40;;;40.67;;
22851;SDS011;11592;45.460;9.240;2022-10-16T01:58:40;67.95;;;39.50;;
22851;SDS011;11592;45.460;9.240;2022-10-16T02:01:11;75.63;;;39.60;;
22851;SDS011;11592;45.460;9.240;2022-10-16T02:03:42;70.93;;;38.67;;
22851;SDS011;11592;45.460;9.240;2022-10-16T02:06:12;68.97;;;39.33;;
22851;SDS011;11592;45.460;9.240;2022-10-16T02:08:39;78.85;;;42.42;;
22851;SDS011;11592;45.460;9.240;2022-10-16T02:11:10;70.50;;;39.45;;
22851;SDS011;11592;45.460;9.240;2022-10-16T02:13:38;74.68;;;39.25;;
22851;SDS011;11592;45.460;9.240;2022-10-16T02:16:14;70.22;;;38.47;;
22851;SDS011;11592;45.460;9.240;2022-10-16T02:18:41;70.85;;;38.70;;
22851;SDS011;11592;45.460;9.240;2022-10-16T02:23:54;73.38;;;39.72;;
22851;SDS011;11592;45.460;9.240;2022-10-16T02:26:51;69.85;;;38.92;;
22851;SDS011;11592;45.460;9.240;2022-10-16T02:29:25;69.18;;;37.17;;
22851;SDS011;11592;45.460;9.240;2022-10-16T02:31:55;66.20;;;38.90;;
22851;SDS011;11592;45.460;9.240;2022-10-16T02:34:27;63.75;;;36.92;;
22851;SDS011;11592;45.460;9.240;2022-10-16T02:36:56;71.70;;;38.63;;
22851;SDS011;11592;45.460;9.240;2022-10-16T02:39:24;66.35;;;38.58;;
22851;SDS011;11592;45.460;9.240;2022-10-16T02:41:53;66.40;;;37.42;;
22851;SDS011;11592;45.460;9.240;2022-10-16T02:44:20;70.20;;;39.65;;
22851;SDS011;11592;45.460;9.240;2022-10-16T02:46:46;72.53;;;40.63;;
22851;SDS011;11592;45.460;9.240;2022-10-16T02:49:13;72.63;;;39.03;;
22851;SDS011;11592;45.460;9.240;2022-10-16T02:51:40;63.63;;;37.88;;
22851;SDS011;11592;45.460;9.240;2022-10-16T02:54:07;70.90;;;38.83;;
22851;SDS011;11592;45.460;9.240;2022-10-16T02:56:33;68.68;;;38.33;;
22851;SDS011;11592;45.460;9.240;2022-10-16T02:59:00;63.00;;;36.88;;
22851;SDS011;11592;45.460;9.240;2022-10-16T03:01:27;68.18;;;38.83;;
22851;SDS011;11592;45.460;9.240;2022-10-16T03:03:54;62.33;;;35.53;;
22851;SDS011;11592;45.460;9.240;2022-10-16T03:06:21;64.50;;;37.78;;
22851;SDS011;11592;45.460;9.240;2022-10-16T03:08:47;65.20;;;37.45;;
22851;SDS011;11592;45.460;9.240;2022-10-16T03:11:14;63.85;;;37.15;;
22851;SDS011;11592;45.460;9.240;2022-10-16T03:13:41;63.63;;;35.88;;
22851;SDS011;11592;45.460;9.240;2022-10-16T03:16:07;62.88;;;35.67;;
22851;SDS011;11592;45.460;9.240;2022-10-16T03:18:34;57.70;;;34.45;;
22851;SDS011;11592;45.460;9.240;2022-10-16T03:21:01;65.57;;;36.08;;
22851;SDS011;11592;45.460;9.240;2022-10-16T03:23:28;63.92;;;37.40;;
22851;SDS011;11592;45.460;9.240;2022-10-16T03:25:56;60.80;;;36.58;;
22851;SDS011;11592;45.460;9.240;2022-10-16T03:28:23;66.32;;;35.90;;
22851;SDS011;11592;45.460;9.240;2022-10-16T03:30:49;61.40;;;35.55;;
22851;SDS011;11592;45.460;9.240;2022-10-16T03:33:16;61.45;;;35.10;;
22851;SDS011;11592;45.460;9.240;2022-10-16T03:35:43;65.20;;;36.55;;
22851;SDS011;11592;45.460;9.240;2022-10-16T03:38:18;61.20;;;35.70;;
22851;SDS011;11592;45.460;9.240;2022-10-16T03:40:46;63.30;;;36.63;;
22851;SDS011;11592;45.460;9.240;2022-10-16T03:43:13;58.67;;;34.05;;
22851;SDS011;11592;45.460;9.240;2022-10-16T03:45:44;60.33;;;35.10;;
22851;SDS011;11592;45.460;9.240;2022-10-16T03:48:11;62.60;;;34.63;;
22851;SDS011;11592;45.460;9.240;2022-10-16T03:50:38;62.17;;;35.63;;
22851;SDS011;11592;45.460;9.240;2022-10-16T03:53:05;57.40;;;34.25;;
22851;SDS011;11592;45.460;9.240;2022-10-16T03:55:32;61.50;;;34.40;;
22851;SDS011;11592;45.460;9.240;2022-10-16T03:57:58;62.45;;;35.38;;
22851;SDS011;11592;45.460;9.240;2022-10-16T04:00:25;61.22;;;34.97;;
22851;SDS011;11592;45.460;9.240;2022-10-16T04:02:52;58.42;;;34.28;;
22851;SDS011;11592;45.460;9.240;2022-10-16T04:05:19;61.25;;;35.30;;
22851;SDS011;11592;45.460;9.240;2022-10-16T04:07:46;57.22;;;34.58;;
22851;SDS011;11592;45.460;9.240;2022-10-16T04:10:12;56.25;;;34.40;;
22851;SDS011;11592;45.460;9.240;2022-10-16T04:12:39;56.63;;;35.10;;
22851;SDS011;11592;45.460;9.240;2022-10-16T04:15:06;58.97;;;35.35;;
22851;SDS011;11592;45.460;9.240;2022-10-16T04:17:33;56.17;;;34.28;;
22851;SDS011;11592;45.460;9.240;2022-10-16T04:20:00;58.20;;;34.10;;
22851;SDS011;11592;45.460;9.240;2022-10-16T04:22:27;65.35;;;33.97;;
22851;SDS011;11592;45.460;9.240;2022-10-16T04:24:54;61.00;;;36.28;;
22851;SDS011;11592;45.460;9.240;2022-10-16T04:27:21;60.85;;;34.65;;
22851;SDS011;11592;45.460;9.240;2022-10-16T04:29:47;58.85;;;34.85;;
22851;SDS011;11592;45.460;9.240;2022-10-16T04:32:14;63.10;;;35.47;;
22851;SDS011;11592;45.460;9.240;2022-10-16T04:34:41;61.25;;;35.05;;
22851;SDS011;11592;45.460;9.240;2022-10-16T04:37:07;62.33;;;35.88;;
22851;SDS011;11592;45.460;9.240;2022-10-16T04:39:34;63.13;;;36.90;;
22851;SDS011;11592;45.460;9.240;2022-10-16T04:42:01;61.47;;;35.53;;
22851;SDS011;11592;45.460;9.240;2022-10-16T04:44:28;57.67;;;34.85;;
22851;SDS011;11592;45.460;9.240;2022-10-16T04:46:55;59.50;;;36.05;;
22851;SDS011;11592;45.460;9.240;2022-10-16T04:49:22;59.30;;;36.63;;
22851;SDS011;11592;45.460;9.240;2022-10-16T04:51:49;55.03;;;33.85;;
22851;SDS011;11592;45.460;9.240;2022-10-16T04:54:15;59.45;;;35.40;;
22851;SDS011;11592;45.460;9.240;2022-10-16T04:56:42;65.53;;;34.80;;
22851;SDS011;11592;45.460;9.240;2022-10-16T04:59:14;64.25;;;36.03;;
22851;SDS011;11592;45.460;9.240;2022-10-16T05:01:41;62.63;;;35.33;;
22851;SDS011;11592;45.460;9.240;2022-10-16T05:04:08;63.40;;;37.78;;
22851;SDS011;11592;45.460;9.240;2022-10-16T05:06:35;60.45;;;35.83;;
22851;SDS011;11592;45.460;9.240;2022-10-16T05:09:02;63.85;;;36.47;;
22851;SDS011;11592;45.460;9.240;2022-10-16T05:11:29;59.00;;;35.03;;
22851;SDS011;11592;45.460;9.240;2022-10-16T05:13:56;64.07;;;35.78;;
22851;SDS011;11592;45.460;9.240;2022-10-16T05:16:23;56.90;;;33.08;;
22851;SDS011;11592;45.460;9.240;2022-10-16T05:18:51;60.65;;;35.45;;
22851;SDS011;11592;45.460;9.240;2022-10-16T05:21:29;59.40;;;34.95;;
22851;SDS011;11592;45.460;9.240;2022-10-16T05:23:56;57.03;;;34.72;;
22851;SDS011;11592;45.460;9.240;2022-10-16T05:26:23;64.32;;;35.15;;
22851;SDS011;11592;45.460;9.240;2022-10-16T05:28:49;57.72;;;34.10;;
22851;SDS011;11592;45.460;9.240;2022-10-16T05:31:16;62.33;;;33.35;;
22851;SDS011;11592;45.460;9.240;2022-10-16T05:33:43;60.28;;;33.75;;
22851;SDS011;11592;45.460;9.240;2022-10-16T05:36:10;54.78;;;34.13;;
22851;SDS011;11592;45.460;9.240;2022-10-16T05:38:37;58.00;;;34.03;;
22851;SDS011;11592;45.460;9.240;2022-10-16T05:41:04;59.60;;;34.08;;
22851;SDS011;11592;45.460;9.240;2022-10-16T05:43:31;54.80;;;33.30;;
22851;SDS011;11592;45.460;9.240;2022-10-16T05:45:59;59.72;;;33.75;;
22851;SDS011;11592;45.460;9.240;2022-10-16T05:48:30;57.88;;;34.72;;
22851;SDS011;11592;45.460;9.240;2022-10-16T05:51:02;59.22;;;32.92;;
22851;SDS011;11592;45.460;9.240;2022-10-16T05:53:31;65.60;;;33.83;;
22851;SDS011;11592;45.460;9.240;2022-10-16T05:56:00;57.53;;;33.28;;
22851;SDS011;11592;45.460;9.240;2022-10-16T05:58:31;57.38;;;33.30;;
22851;SDS011;11592;45.460;9.240;2022-10-16T06:03:30;62.17;;;36.38;;
22851;SDS011;11592;45.460;9.240;2022-10-16T06:05:57;57.70;;;35.40;;
22851;SDS011;11592;45.460;9.240;2022-10-16T06:08:24;65.85;;;36.45;;
22851;SDS011;11592;45.460;9.240;2022-10-16T06:11:01;67.13;;;36.22;;
22851;SDS011;11592;45.460;9.240;2022-10-16T06:13:33;59.83;;;34.38;;
22851;SDS011;11592;45.460;9.240;2022-10-16T06:16:00;58.70;;;34.75;;
22851;SDS011;11592;45.460;9.240;2022-10-16T06:18:27;61.95;;;34.10;;
22851;SDS011;11592;45.460;9.240;2022-10-16T06:20:55;60.83;;;34.22;;
22851;SDS011;11592;45.460;9.240;2022-10-16T06:23:23;58.47;;;34.45;;
22851;SDS011;11592;45.460;9.240;2022-10-16T06:25:50;57.80;;;32.90;;
22851;SDS011;11592;45.460;9.240;2022-10-16T06:28:17;58.75;;;33.38;;
22851;SDS011;11592;45.460;9.240;2022-10-16T06:30:44;59.40;;;34.40;;
22851;SDS011;11592;45.460;9.240;2022-10-16T06:33:11;64.40;;;34.47;;
22851;SDS011;11592;45.460;9.240;2022-10-16T06:35:39;56.20;;;33.60;;
22851;SDS011;11592;45.460;9.240;2022-10-16T06:38:06;54.28;;;31.73;;
22851;SDS011;11592;45.460;9.240;2022-10-16T06:40:33;56.15;;;30.85;;
22851;SDS011;11592;45.460;9.240;2022-10-16T06:42:59;50.15;;;30.55;;
22851;SDS011;11592;45.460;9.240;2022-10-16T06:45:26;52.90;;;31.95;;
22851;SDS011;11592;45.460;9.240;2022-10-16T06:47:53;54.35;;;31.23;;
22851;SDS011;11592;45.460;9.240;2022-10-16T06:50:20;52.10;;;32.30;;
22851;SDS011;11592;45.460;9.240;2022-10-16T06:52:46;52.78;;;30.95;;
22851;SDS011;11592;45.460;9.240;2022-10-16T06:55:13;53.72;;;31.63;;
22851;SDS011;11592;45.460;9.240;2022-10-16T06:57:40;55.83;;;31.92;;
22851;SDS011;11592;45.460;9.240;2022-10-16T07:00:07;49.15;;;29.80;;
22851;SDS011;11592;45.460;9.240;2022-10-16T07:02:35;53.85;;;32.08;;
22851;SDS011;11592;45.460;9.240;2022-10-16T07:05:01;59.42;;;32.95;;
22851;SDS011;11592;45.460;9.240;2022-10-16T07:07:28;60.97;;;33.47;;
22851;SDS011;11592;45.460;9.240;2022-10-16T07:09:55;53.40;;;32.50;;
22851;SDS011;11592;45.460;9.240;2022-10-16T07:12:22;60.90;;;34.95;;
22851;SDS011;11592;45.460;9.240;2022-10-16T07:14:49;54.58;;;32.78;;
22851;SDS011;11592;45.460;9.240;2022-10-16T07:17:18;54.65;;;32.35;;
22851;SDS011;11592;45.460;9.240;2022-10-16T07:19:44;47.95;;;30.20;;
22851;SDS011;11592;45.460;9.240;2022-10-16T07:22:11;45.92;;;28.90;;
22851;SDS011;11592;45.460;9.240;2022-10-16T07:24:38;47.80;;;28.83;;
22851;SDS011;11592;45.460;9.240;2022-10-16T07:27:05;41.38;;;26.60;;
22851;SDS011;11592;45.460;9.240;2022-10-16T07:29:32;47.08;;;27.75;;
22851;SDS011;11592;45.460;9.240;2022-10-16T07:31:58;47.17;;;26.67;;
22851;SDS011;11592;45.460;9.240;2022-10-16T07:34:25;40.63;;;25.40;;
22851;SDS011;11592;45.460;9.240;2022-10-16T07:36:52;41.92;;;26.17;;
22851;SDS011;11592;45.460;9.240;2022-10-16T07:39:19;43.35;;;25.83;;
22851;SDS011;11592;45.460;9.240;2022-10-16T07:41:46;39.75;;;24.45;;
22851;SDS011;11592;45.460;9.240;2022-10-16T07:44:13;39.13;;;24.98;;
22851;SDS011;11592;45.460;9.240;2022-10-16T07:46:41;45.30;;;26.90;;
22851;SDS011;11592;45.460;9.240;2022-10-16T07:49:08;43.63;;;24.85;;
22851;SDS011;11592;45.460;9.240;2022-10-16T07:51:35;43.47;;;27.45;;
22851;SDS011;11592;45.460;9.240;2022-10-16T07:54:02;45.03;;;26.92;;
22851;SDS011;11592;45.460;9.240;2022-10-16T07:56:30;48.80;;;26.27;;
22851;SDS011;11592;45.460;9.240;2022-10-16T07:58:58;44.47;;;26.42;;
22851;SDS011;11592;45.460;9.240;2022-10-16T08:01:25;46.25;;;27.70;;
22851;SDS011;11592;45.460;9.240;2022-10-16T08:03:52;49.10;;;29.15;;
22851;SDS011;11592;45.460;9.240;2022-10-16T08:06:20;54.35;;;30.92;;
22851;SDS011;11592;45.460;9.240;2022-10-16T08:08:53;48.95;;;29.92;;
22851;SDS011;11592;45.460;9.240;2022-10-16T08:11:20;54.28;;;29.85;;
22851;SDS011;11592;45.460;9.240;2022-10-16T08:13:47;57.15;;;31.98;;
22851;SDS011;11592;45.460;9.240;2022-10-16T08:16:13;55.55;;;31.05;;
22851;SDS011;11592;45.460;9.240;2022-10-16T08:18:40;56.58;;;33.08;;
22851;SDS011;11592;45.460;9.240;2022-10-16T08:21:10;55.28;;;31.98;;
22851;SDS011;11592;45.460;9.240;2022-10-16T08:23:46;61.08;;;33.80;;
22851;SDS011;11592;45.460;9.240;2022-10-16T08:26:22;64.45;;;33.45;;
22851;SDS011;11592;45.460;9.240;2022-10-16T08:28:49;64.25;;;33.63;;
22851;SDS011;11592;45.460;9.240;2022-10-16T08:31:17;59.45;;;34.22;;
22851;SDS011;11592;45.460;9.240;2022-10-16T08:33:44;66.13;;;35.83;;
22851;SDS011;11592;45.460;9.240;2022-10-16T08:36:13;73.07;;;38.28;;
22851;SDS011;11592;45.460;9.240;2022-10-16T08:38:41;69.80;;;38.10;;
22851;SDS011;11592;45.460;9.240;2022-10-16T08:41:13;74.05;;;40.65;;
22851;SDS011;11592;45.460;9.240;2022-10-16T08:49:19;81.88;;;41.05;;
22851;SDS011;11592;45.460;9.240;2022-10-16T08:51:46;84.88;;;43.28;;
22851;SDS011;11592;45.460;9.240;2022-10-16T08:54:21;79.65;;;42.38;;
22851;SDS011;11592;45.460;9.240;2022-10-16T08:56:49;79.80;;;41.45;;
22851;SDS011;11592;45.460;9.240;2022-10-16T08:59:16;78.90;;;42.13;;
22851;SDS011;11592;45.460;9.240;2022-10-16T09:01:44;82.38;;;42.30;;
22851;SDS011;11592;45.460;9.240;2022-10-16T09:09:51;86.88;;;43.75;;
22851;SDS011;11592;45.460;9.240;2022-10-16T09:15:13;83.32;;;44.28;;
22851;SDS011;11592;45.460;9.240;2022-10-16T09:20:41;80.43;;;42.67;;
22851;SDS011;11592;45.460;9.240;2022-10-16T09:25:54;77.15;;;42.72;;
22851;SDS011;11592;45.460;9.240;2022-10-16T09:28:24;80.50;;;42.33;;
22851;SDS011;11592;45.460;9.240;2022-10-16T09:30:51;81.35;;;42.92;;
22851;SDS011;11592;45.460;9.240;2022-10-16T09:33:19;79.80;;;43.33;;
22851;SDS011;11592;45.460;9.240;2022-10-16T09:35:50;82.57;;;40.88;;
22851;SDS011;11592;45.460;9.240;2022-10-16T09:38:29;84.38;;;41.90;;
22851;SDS011;11592;45.460;9.240;2022-10-16T09:41:02;82.38;;;40.90;;
22851;SDS011;11592;45.460;9.240;2022-10-16T09:43:54;79.88;;;40.75;;
22851;SDS011;11592;45.460;9.240;2022-10-16T09:46:31;73.78;;;39.80;;
22851;SDS011;11592;45.460;9.240;2022-10-16T09:49:03;81.80;;;43.35;;
22851;SDS011;11592;45.460;9.240;2022-10-16T09:51:32;78.25;;;40.55;;
22851;SDS011;11592;45.460;9.240;2022-10-16T09:54:11;76.10;;;41.80;;
22851;SDS011;11592;45.460;9.240;2022-10-16T09:56:47;79.18;;;42.03;;
22851;SDS011;11592;45.460;9.240;2022-10-16T09:59:20;79.57;;;40.00;;
22851;SDS011;11592;45.460;9.240;2022-10-16T10:01:53;75.47;;;41.08;;
22851;SDS011;11592;45.460;9.240;2022-10-16T10:04:22;74.18;;;40.70;;
22851;SDS011;11592;45.460;9.240;2022-10-16T10:09:23;74.38;;;40.42;;
22851;SDS011;11592;45.460;9.240;2022-10-16T10:11:57;77.22;;;41.28;;
22851;SDS011;11592;45.460;9.240;2022-10-16T10:14:34;72.85;;;40.70;;
22851;SDS011;11592;45.460;9.240;2022-10-16T10:17:12;80.40;;;41.90;;
22851;SDS011;11592;45.460;9.240;2022-10-16T10:22:24;83.30;;;42.20;;
22851;SDS011;11592;45.460;9.240;2022-10-16T10:25:14;85.93;;;40.53;;
22851;SDS011;11592;45.460;9.240;2022-10-16T10:30:23;82.32;;;42.80;;
22851;SDS011;11592;45.460;9.240;2022-10-16T10:39:01;91.05;;;44.03;;
22851;SDS011;11592;45.460;9.240;2022-10-16T10:57:29;82.70;;;42.03;;
22851;SDS011;11592;45.460;9.240;2022-10-16T11:08:56;82.53;;;44.45;;
22851;SDS011;11592;45.460;9.240;2022-10-16T11:11:30;78.78;;;41.45;;
22851;SDS011;11592;45.460;9.240;2022-10-16T11:14:05;86.45;;;42.80;;
22851;SDS011;11592;45.460;9.240;2022-10-16T11:16:54;75.15;;;41.08;;
22851;SDS011;11592;45.460;9.240;2022-10-16T11:24:53;92.47;;;49.03;;
22851;SDS011;11592;45.460;9.240;2022-10-16T11:27:31;86.13;;;47.78;;
22851;SDS011;11592;45.460;9.240;2022-10-16T11:30:14;82.82;;;44.65;;
22851;SDS011;11592;45.460;9.240;2022-10-16T11:32:56;72.97;;;39.00;;
22851;SDS011;11592;45.460;9.240;2022-10-16T11:38:14;62.00;;;35.28;;
22851;SDS011;11592;45.460;9.240;2022-10-16T11:40:52;62.83;;;35.35;;
22851;SDS011;11592;45.460;9.240;2022-10-16T11:43:25;74.95;;;44.42;;
22851;SDS011;11592;45.460;9.240;2022-10-16T11:46:04;61.03;;;36.70;;
22851;SDS011;11592;45.460;9.240;2022-10-16T11:48:46;73.38;;;42.47;;
22851;SDS011;11592;45.460;9.240;2022-10-16T11:51:40;73.78;;;42.95;;
22851;SDS011;11592;45.460;9.240;2022-10-16T11:56:48;58.22;;;32.97;;
22851;SDS011;11592;45.460;9.240;2022-10-16T12:05:18;74.10;;;40.22;;
22851;SDS011;11592;45.460;9.240;2022-10-16T12:07:45;67.75;;;40.75;;
22851;SDS011;11592;45.460;9.240;2022-10-16T12:10:30;71.18;;;42.10;;
22851;SDS011;11592;45.460;9.240;2022-10-16T12:13:04;67.93;;;40.47;;
22851;SDS011;11592;45.460;9.240;2022-10-16T12:15:51;80.05;;;45.40;;
22851;SDS011;11592;45.460;9.240;2022-10-16T12:18:29;67.57;;;38.33;;
22851;SDS011;11592;45.460;9.240;2022-10-16T12:20:57;72.80;;;44.10;;
22851;SDS011;11592;45.460;9.240;2022-10-16T12:23:26;72.90;;;42.05;;
22851;SDS011;11592;45.460;9.240;2022-10-16T12:25:56;80.07;;;46.55;;
22851;SDS011;11592;45.460;9.240;2022-10-16T12:28:26;76.50;;;45.35;;
22851;SDS011;11592;45.460;9.240;2022-10-16T12:30:58;74.53;;;44.03;;
22851;SDS011;11592;45.460;9.240;2022-10-16T12:33:33;72.72;;;41.55;;
22851;SDS011;11592;45.460;9.240;2022-10-16T12:36:03;70.68;;;41.00;;
22851;SDS011;11592;45.460;9.240;2022-10-16T12:41:23;67.90;;;43.30;;
22851;SDS011;11592;45.460;9.240;2022-10-16T12:43:53;68.78;;;40.50;;
22851;SDS011;11592;45.460;9.240;2022-10-16T12:48:49;68.95;;;42.50;;
22851;SDS011;11592;45.460;9.240;2022-10-16T12:51:35;68.85;;;43.00;;
22851;SDS011;11592;45.460;9.240;2022-10-16T12:54:17;64.28;;;39.80;;
22851;SDS011;11592;45.460;9.240;2022-10-16T12:59:22;62.72;;;36.80;;
22851;SDS011;11592;45.460;9.240;2022-10-16T13:04:58;63.22;;;42.47;;
22851;SDS011;11592;45.460;9.240;2022-10-16T13:10:41;76.22;;;43.33;;
22851;SDS011;11592;45.460;9.240;2022-10-16T13:13:36;64.10;;;43.00;;
22851;SDS011;11592;45.460;9.240;2022-10-16T13:16:17;69.13;;;44.37;;
22851;SDS011;11592;45.460;9.240;2022-10-16T13:19:11;64.28;;;40.67;;
22851;SDS011;11592;45.460;9.240;2022-10-16T13:28:08;59.65;;;37.45;;
22851;SDS011;11592;45.460;9.240;2022-10-16T13:30:43;51.42;;;29.92;;
22851;SDS011;11592;45.460;9.240;2022-10-16T13:33:18;52.40;;;33.67;;
22851;SDS011;11592;45.460;9.240;2022-10-16T13:35:53;39.75;;;26.67;;
22851;SDS011;11592;45.460;9.240;2022-10-16T13:38:22;60.92;;;35.42;;
22851;SDS011;11592;45.460;9.240;2022-10-16T13:40:52;45.50;;;29.20;;
22851;SDS011;11592;45.460;9.240;2022-10-16T13:43:31;59.78;;;37.15;;
22851;SDS011;11592;45.460;9.240;2022-10-16T13:46:06;58.10;;;36.15;;
22851;SDS011;11592;45.460;9.240;2022-10-16T13:48:39;63.95;;;37.83;;
22851;SDS011;11592;45.460;9.240;2022-10-16T13:53:44;61.08;;;38.33;;
22851;SDS011;11592;45.460;9.240;2022-10-16T13:56:12;41.88;;;27.20;;
22851;SDS011;11592;45.460;9.240;2022-10-16T13:58:41;46.47;;;28.38;;
22851;SDS011;11592;45.460;9.240;2022-10-16T14:01:18;40.40;;;27.38;;
22851;SDS011;11592;45.460;9.240;2022-10-16T14:03:59;48.45;;;29.27;;
22851;SDS011;11592;45.460;9.240;2022-10-16T14:06:31;41.40;;;25.95;;
22851;SDS011;11592;45.460;9.240;2022-10-16T14:09:09;49.45;;;28.88;;
22851;SDS011;11592;45.460;9.240;2022-10-16T14:11:51;51.17;;;29.85;;
22851;SDS011;11592;45.460;9.240;2022-10-16T14:14:21;51.78;;;29.70;;
22851;SDS011;11592;45.460;9.240;2022-10-16T14:16:49;66.05;;;39.38;;
22851;SDS011;11592;45.460;9.240;2022-10-16T14:19:22;66.35;;;41.03;;
22851;SDS011;11592;45.460;9.240;2022-10-16T14:21:55;67.95;;;41.65;;
22851;SDS011;11592;45.460;9.240;2022-10-16T14:26:52;60.22;;;37.15;;
22851;SDS011;11592;45.460;9.240;2022-10-16T14:29:22;71.18;;;41.85;;
22851;SDS011;11592;45.460;9.240;2022-10-16T14:31:54;67.68;;;37.75;;
22851;SDS011;11592;45.460;9.240;2022-10-16T14:34:27;66.40;;;36.08;;
22851;SDS011;11592;45.460;9.240;2022-10-16T14:37:01;52.05;;;32.13;;
22851;SDS011;11592;45.460;9.240;2022-10-16T14:39:35;54.72;;;30.90;;
22851;SDS011;11592;45.460;9.240;2022-10-16T14:42:02;54.38;;;32.53;;
22851;SDS011;11592;45.460;9.240;2022-10-16T14:44:32;58.53;;;33.85;;
22851;SDS011;11592;45.460;9.240;2022-10-16T14:47:09;64.50;;;36.63;;
22851;SDS011;11592;45.460;9.240;2022-10-16T14:49:41;64.40;;;33.55;;
22851;SDS011;11592;45.460;9.240;2022-10-16T14:52:09;76.57;;;39.58;;
22851;SDS011;11592;45.460;9.240;2022-10-16T14:54:38;71.43;;;40.35;;
22851;SDS011;11592;45.460;9.240;2022-10-16T14:57:05;66.32;;;36.80;;
22851;SDS011;11592;45.460;9.240;2022-10-16T15:04:47;56.33;;;34.92;;
22851;SDS011;11592;45.460;9.240;2022-10-16T15:07:14;65.45;;;36.95;;
22851;SDS011;11592;45.460;9.240;2022-10-16T15:09:41;75.57;;;40.85;;
22851;SDS011;11592;45.460;9.240;2022-10-16T15:12:14;60.13;;;33.72;;
22851;SDS011;11592;45.460;9.240;2022-10-16T15:14:42;54.15;;;31.77;;
22851;SDS011;11592;45.460;9.240;2022-10-16T15:17:10;66.10;;;38.08;;
22851;SDS011;11592;45.460;9.240;2022-10-16T15:19:37;62.83;;;37.97;;
22851;SDS011;11592;45.460;9.240;2022-10-16T15:22:04;60.20;;;33.00;;
22851;SDS011;11592;45.460;9.240;2022-10-16T15:24:31;58.33;;;34.08;;
22851;SDS011;11592;45.460;9.240;2022-10-16T15:26:57;53.70;;;30.88;;
22851;SDS011;11592;45.460;9.240;2022-10-16T15:29:24;72.53;;;39.15;;
22851;SDS011;11592;45.460;9.240;2022-10-16T15:31:51;58.17;;;31.77;;
22851;SDS011;11592;45.460;9.240;2022-10-16T15:34:18;57.95;;;32.58;;
22851;SDS011;11592;45.460;9.240;2022-10-16T15:36:45;51.65;;;29.88;;
22851;SDS011;11592;45.460;9.240;2022-10-16T15:41:43;57.15;;;28.63;;
22851;SDS011;11592;45.460;9.240;2022-10-16T15:44:13;64.68;;;38.75;;
22851;SDS011;11592;45.460;9.240;2022-10-16T15:46:40;64.90;;;35.03;;
22851;SDS011;11592;45.460;9.240;2022-10-16T15:49:07;67.47;;;36.92;;
22851;SDS011;11592;45.460;9.240;2022-10-16T15:51:37;59.63;;;34.03;;
22851;SDS011;11592;45.460;9.240;2022-10-16T15:54:05;58.03;;;32.50;;
22851;SDS011;11592;45.460;9.240;2022-10-16T15:56:32;58.63;;;32.97;;
22851;SDS011;11592;45.460;9.240;2022-10-16T15:59:00;50.90;;;29.80;;
22851;SDS011;11592;45.460;9.240;2022-10-16T16:01:27;54.08;;;31.80;;
22851;SDS011;11592;45.460;9.240;2022-10-16T16:03:57;57.92;;;32.47;;
22851;SDS011;11592;45.460;9.240;2022-10-16T16:06:24;55.10;;;32.28;;
22851;SDS011;11592;45.460;9.240;2022-10-16T16:08:51;57.72;;;31.83;;
22851;SDS011;11592;45.460;9.240;2022-10-16T16:11:19;62.65;;;36.13;;
22851;SDS011;11592;45.460;9.240;2022-10-16T16:13:46;64.25;;;36.20;;
22851;SDS011;11592;45.460;9.240;2022-10-16T16:16:14;57.38;;;32.67;;
22851;SDS011;11592;45.460;9.240;2022-10-16T16:18:42;59.33;;;34.15;;
22851;SDS011;11592;45.460;9.240;2022-10-16T16:21:10;64.50;;;34.42;;
22851;SDS011;11592;45.460;9.240;2022-10-16T16:23:38;53.97;;;30.50;;
22851;SDS011;11592;45.460;9.240;2022-10-16T16:26:06;57.25;;;32.53;;
22851;SDS011;11592;45.460;9.240;2022-10-16T16:31:08;72.43;;;35.47;;
22851;SDS011;11592;45.460;9.240;2022-10-16T16:33:35;62.80;;;35.45;;
22851;SDS011;11592;45.460;9.240;2022-10-16T16:36:02;64.28;;;35.72;;
22851;SDS011;11592;45.460;9.240;2022-10-16T16:38:35;62.75;;;34.08;;
22851;SDS011;11592;45.460;9.240;2022-10-16T16:41:12;60.50;;;34.33;;
22851;SDS011;11592;45.460;9.240;2022-10-16T16:43:40;56.13;;;32.88;;
22851;SDS011;11592;45.460;9.240;2022-10-16T16:46:06;67.35;;;37.05;;